createdAt,value
2023-02-19T00:01:47.356Z,100760.76
2023-02-19T00:06:53.107Z,100760.72
2023-02-19T00:11:58.506Z,100749.59
2023-02-19T00:17:04.023Z,100750.26
2023-02-19T00:22:09.648Z,100749.09
2023-02-19T00:27:15.174Z,100740.91
2023-02-19T00:32:20.608Z,100759.75
2023-02-19T00:37:26.121Z,100754.83
2023-02-19T00:42:31.641Z,100746.94
2023-02-19T00:47:37.065Z,100753.09
2023-02-19T00:52:44.223Z,100753.05
2023-02-19T00:57:49.730Z,100746.59
2023-02-19T01:02:55.206Z,100746.30
2023-02-19T01:08:02.467Z,100728.28
2023-02-19T01:13:08.244Z,100729.23
2023-02-19T01:18:14.129Z,100735.25
2023-02-19T01:23:19.656Z,100717.72
2023-02-19T01:28:25.182Z,100715.08
2023-02-19T01:33:31.561Z,100710.48
2023-02-19T01:38:38.163Z,100699.54
2023-02-19T01:44:11.583Z,100694.46
2023-02-19T01:49:26.022Z,100676.41
2023-02-19T01:54:34.456Z,100682.52
2023-02-19T01:59:40.866Z,100680.87
2023-02-19T02:04:46.490Z,100676.08
2023-02-19T02:10:12.927Z,100671.53
2023-02-19T02:15:19.944Z,100663.09
2023-02-19T02:20:28.454Z,100658.21
2023-02-19T02:25:55.107Z,100650.97
2023-02-19T02:31:05.057Z,100650.60
2023-02-19T02:36:20.300Z,100639.78
2023-02-19T02:41:27.091Z,100634.45
2023-02-19T02:46:35.609Z,100632.81
2023-02-19T02:51:46.907Z,100635.00
2023-02-19T02:56:58.670Z,100634.13
2023-02-19T03:02:19.269Z,100644.80
2023-02-19T03:07:25.976Z,100640.84
2023-02-19T03:12:51.950Z,100644.21
2023-02-19T03:18:22.412Z,100650.27
2023-02-19T03:23:48.937Z,100648.77
2023-02-19T03:29:15.120Z,100650.50
2023-02-19T03:34:30.343Z,100649.59
2023-02-19T03:39:37.583Z,100645.80
2023-02-19T03:44:58.216Z,100649.12
2023-02-19T03:50:15.828Z,100655.66
2023-02-19T03:55:27.405Z,100662.22
2023-02-19T04:00:47.783Z,100655.78
2023-02-19T04:05:56.676Z,100644.21
2023-02-19T04:11:02.834Z,100652.55
2023-02-19T04:16:13.029Z,100659.94
2023-02-19T04:21:20.500Z,100651.38
2023-02-19T04:26:26.213Z,100658.48
2023-02-19T04:31:35.562Z,100653.47
2023-02-19T04:36:41.016Z,100658.80
2023-02-19T04:41:46.547Z,100648.68
2023-02-19T04:46:52.020Z,100664.70
2023-02-19T04:51:57.540Z,100652.84
2023-02-19T04:57:02.927Z,100655.34
2023-02-19T05:02:08.395Z,100647.77
2023-02-19T05:07:14.160Z,100649.91
2023-02-19T05:12:19.751Z,100653.20
2023-02-19T05:17:25.302Z,100662.64
2023-02-19T05:22:31.694Z,100668.48
2023-02-19T05:27:37.340Z,100678.11
2023-02-19T05:32:44.164Z,100680.16
2023-02-19T05:37:49.616Z,100674.23
2023-02-19T05:42:55.007Z,100680.39
2023-02-19T05:48:00.802Z,100695.36
2023-02-19T05:53:07.318Z,100699.00
2023-02-19T05:58:12.704Z,100708.17
2023-02-19T06:03:18.294Z,100702.75
2023-02-19T06:08:23.829Z,100705.07
2023-02-19T06:13:29.244Z,100715.88
2023-02-19T06:18:34.777Z,100721.66
2023-02-19T06:23:41.365Z,100724.67
2023-02-19T06:28:48.802Z,100731.02
2023-02-19T06:33:55.250Z,100740.19
2023-02-19T06:39:05.158Z,100738.00
2023-02-19T06:44:10.621Z,100740.32
2023-02-19T06:49:16.081Z,100757.23
2023-02-19T06:54:21.598Z,100749.58
2023-02-19T06:59:27.635Z,100759.75
2023-02-19T07:04:33.335Z,100760.12
2023-02-19T07:09:38.891Z,100771.89
2023-02-19T07:14:44.360Z,100774.04
2023-02-19T07:19:49.746Z,100791.37
2023-02-19T07:24:55.297Z,100790.20
2023-02-19T07:30:00.792Z,100811.29
2023-02-19T07:35:06.931Z,100822.41
2023-02-19T07:40:13.534Z,100824.11
2023-02-19T07:45:18.996Z,100823.91
2023-02-19T07:50:24.455Z,100819.13
2023-02-19T07:55:29.922Z,100816.88
2023-02-19T08:00:35.376Z,100839.89
2023-02-19T08:05:44.106Z,100850.72
2023-02-19T08:11:07.823Z,100858.41
2023-02-19T08:16:24.115Z,100873.88
2023-02-19T08:21:24.685Z,100873.88
2023-02-19T08:26:30.711Z,100874.91
2023-02-19T08:31:37.649Z,100893.47
2023-02-19T08:36:44.340Z,100893.47
2023-02-19T08:41:50.668Z,100910.18
2023-02-19T08:46:56.272Z,100910.18
2023-02-19T08:52:01.857Z,100931.94
2023-02-19T08:57:07.388Z,100936.08
2023-02-19T09:02:12.849Z,100948.24
2023-02-19T09:07:19.499Z,100950.27
2023-02-19T09:12:25.885Z,100963.08
2023-02-19T09:17:31.346Z,100989.63
2023-02-19T09:22:36.974Z,100989.63
2023-02-19T09:27:42.431Z,100993.14
2023-02-19T09:32:48.304Z,100993.14
2023-02-19T09:37:53.788Z,101011.23
2023-02-19T09:43:01.642Z,101001.26
2023-02-19T09:48:07.873Z,101001.10
2023-02-19T09:53:25.358Z,101002.72
2023-02-19T09:58:33.781Z,101008.28
2023-02-19T10:03:43.382Z,101021.36
2023-02-19T10:08:51.883Z,101015.23
2023-02-19T10:14:07.860Z,101032.36
2023-02-19T10:19:14.570Z,101038.91
2023-02-19T10:24:26.223Z,101062.48
2023-02-19T10:29:31.623Z,101069.38
2023-02-19T10:34:37.156Z,101071.96
2023-02-19T10:39:48.069Z,101082.05
2023-02-19T10:45:01.026Z,101079.86
2023-02-19T10:50:08.955Z,101103.76
2023-02-19T10:55:26.367Z,101109.89
2023-02-19T11:00:32.278Z,101109.96
2023-02-19T11:05:40.864Z,101119.70
2023-02-19T11:10:49.507Z,101133.84
2023-02-19T11:15:56.283Z,101112.14
2023-02-19T11:21:08.414Z,101121.62
2023-02-19T11:26:19.727Z,101136.79
2023-02-19T11:31:27.988Z,101138.09
2023-02-19T11:36:38.707Z,101142.47
2023-02-19T11:42:05.304Z,101164.72
2023-02-19T11:47:34.756Z,101171.51
2023-02-19T11:52:58.475Z,101179.44
2023-02-19T11:58:15.662Z,101204.42
2023-02-19T12:03:30.772Z,101186.66
2023-02-19T12:08:54.283Z,101192.53
2023-02-19T12:14:17.907Z,101193.67
2023-02-19T12:19:32.570Z,101200.14
2023-02-19T12:24:50.353Z,101211.45
2023-02-19T12:30:17.269Z,101212.72
2023-02-19T12:35:34.553Z,101199.17
2023-02-19T12:40:43.138Z,101208.88
2023-02-19T12:45:59.153Z,101216.56
2023-02-19T12:51:10.650Z,101246.87
2023-02-19T12:56:34.589Z,101223.86
2023-02-19T13:01:45.980Z,101246.00
2023-02-19T13:07:00.525Z,101251.45
2023-02-19T13:12:14.800Z,101268.33
2023-02-19T13:17:41.378Z,101269.12
2023-02-19T13:23:07.803Z,101283.72
2023-02-19T13:28:51.011Z,101291.33
2023-02-19T13:34:05.332Z,101286.20
2023-02-19T13:44:22.116Z,101274.66
2023-02-19T13:49:32.301Z,101288.08
2023-02-19T13:54:39.573Z,101298.52
2023-02-19T13:59:48.338Z,101302.75
2023-02-19T14:05:02.383Z,101308.94
2023-02-19T14:10:10.893Z,101317.27
2023-02-19T14:15:43.890Z,101322.35
2023-02-19T14:20:49.551Z,101333.51
2023-02-19T14:26:03.891Z,101333.78
2023-02-19T14:31:18.565Z,101330.03
2023-02-19T14:36:44.364Z,101355.64
2023-02-19T14:41:56.029Z,101336.73
2023-02-19T14:47:10.242Z,101330.30
2023-02-19T14:52:32.240Z,101315.52
2023-02-19T14:57:43.308Z,101317.09
2023-02-19T15:02:49.532Z,101324.97
2023-02-19T15:07:57.562Z,101340.52
2023-02-19T15:13:05.320Z,101349.61
2023-02-19T15:18:19.275Z,101354.84
2023-02-19T15:23:26.427Z,101358.56
2023-02-19T15:28:34.818Z,101344.45
2023-02-19T15:33:40.277Z,101341.94
2023-02-19T15:38:46.188Z,101351.57
2023-02-19T15:43:57.729Z,101355.36
2023-02-19T15:49:15.063Z,101353.20
2023-02-19T15:54:32.731Z,101364.26
2023-02-19T15:59:41.239Z,101383.59
2023-02-19T16:04:47.363Z,101374.55
2023-02-19T16:10:07.512Z,101375.98
2023-02-19T16:15:15.941Z,101377.92
2023-02-19T16:20:36.411Z,101384.63
2023-02-19T16:25:47.362Z,101408.80
2023-02-19T16:31:07.428Z,101408.59
2023-02-19T16:36:37.931Z,101429.70
2023-02-19T16:41:52.569Z,101429.70
2023-02-19T16:47:00.999Z,101439.63
2023-02-19T16:52:06.710Z,101457.91
2023-02-19T16:57:12.282Z,101458.13
2023-02-19T17:02:20.967Z,101469.18
2023-02-19T17:07:27.572Z,101459.77
2023-02-19T17:12:33.140Z,101463.36
2023-02-19T17:17:38.700Z,101486.54
2023-02-19T17:22:44.567Z,101464.72
2023-02-19T17:27:50.096Z,101467.99
2023-02-19T17:32:55.945Z,101472.98
2023-02-19T17:38:01.406Z,101476.62
2023-02-19T17:43:08.029Z,101482.50
2023-02-19T17:48:14.772Z,101474.63
2023-02-19T17:53:20.605Z,101483.88
2023-02-19T17:58:26.224Z,101487.45
2023-02-19T18:03:31.677Z,101484.07
2023-02-19T18:08:37.710Z,101474.00
2023-02-19T18:13:43.324Z,101474.92
2023-02-19T18:18:48.822Z,101486.01
2023-02-19T18:23:54.352Z,101487.81
2023-02-19T18:28:59.938Z,101490.11
2023-02-19T18:34:06.626Z,101483.91
2023-02-19T18:39:12.475Z,101495.40
2023-02-19T18:44:23.719Z,101488.30
2023-02-19T18:49:29.842Z,101488.36
2023-02-19T18:54:35.567Z,101488.45
2023-02-19T18:59:43.292Z,101484.97
2023-02-19T19:04:54.547Z,101491.22
2023-02-19T19:10:00.196Z,101493.33
2023-02-19T19:15:06.414Z,101499.09
2023-02-19T19:20:12.493Z,101492.53
2023-02-19T19:25:18.587Z,101478.81
2023-02-19T19:30:24.314Z,101484.17
2023-02-19T19:35:29.923Z,101485.89
2023-02-19T19:40:35.400Z,101487.77
2023-02-19T19:45:41.043Z,101488.94
2023-02-19T19:50:46.863Z,101479.76
2023-02-19T19:55:52.678Z,101482.83
2023-02-19T20:00:59.180Z,101489.52
2023-02-19T20:06:05.018Z,101499.59
2023-02-19T20:11:10.897Z,101508.92
2023-02-19T20:16:16.856Z,101508.92
2023-02-19T20:21:22.457Z,101514.27
2023-02-19T20:26:29.874Z,101503.69
2023-02-19T20:31:35.519Z,101508.67
2023-02-19T20:36:45.787Z,101513.14
2023-02-19T20:41:52.993Z,101517.52
2023-02-19T20:47:00.323Z,101528.55
2023-02-19T20:52:09.288Z,101525.83
2023-02-19T20:57:15.970Z,101523.27
2023-02-19T21:02:28.763Z,101532.97
2023-02-19T21:07:34.264Z,101510.94
2023-02-19T21:12:40.836Z,101513.09
2023-02-19T21:17:47.344Z,101510.32
2023-02-19T21:22:52.722Z,101491.76
2023-02-19T21:27:58.105Z,101482.95
2023-02-19T21:33:04.174Z,101475.44
2023-02-19T21:38:10.057Z,101466.19
2023-02-19T21:43:15.661Z,101462.27
2023-02-19T21:48:21.208Z,101454.75
2023-02-19T21:53:26.805Z,101460.05
2023-02-19T21:58:32.325Z,101456.02
2023-02-19T22:03:37.851Z,101460.58
2023-02-19T22:08:44.174Z,101449.58
2023-02-19T22:13:49.725Z,101440.73
2023-02-19T22:18:57.495Z,101431.91
2023-02-19T22:24:04.410Z,101434.39
2023-02-19T22:29:11.539Z,101422.02
2023-02-19T22:34:17.703Z,101432.12
2023-02-19T22:39:26.137Z,101433.34
2023-02-19T22:44:31.597Z,101430.49
2023-02-19T22:49:39.566Z,101425.23
2023-02-19T22:54:45.067Z,101413.72
2023-02-19T22:59:52.999Z,101415.55
2023-02-19T23:04:58.481Z,101420.87
2023-02-19T23:10:03.998Z,101412.98
2023-02-19T23:15:11.043Z,101412.27
2023-02-19T23:20:16.556Z,101425.91
2023-02-19T23:25:21.945Z,101417.63
2023-02-19T23:30:27.571Z,101409.66
2023-02-19T23:35:33.020Z,101419.87
2023-02-19T23:40:38.539Z,101407.55
2023-02-19T23:45:44.188Z,101387.05
2023-02-19T23:50:49.710Z,101379.62
2023-02-19T23:55:55.442Z,101375.65
